sensor_id;sensor_type;location;lat;lon;timestamp;pressure;altitude;pressure_sealevel;temperature
67515;BMP280;60646;55.802;37.032;2022-07-29T00:01:06;99807.44;;;21.38
67515;BMP280;60646;55.802;37.032;2022-07-29T00:03:32;99800.72;;;21.39
67515;BMP280;60646;55.802;37.032;2022-07-29T00:05:58;99815.72;;;21.40
67515;BMP280;60646;55.802;37.032;2022-07-29T00:08:24;99813.41;;;21.36
67515;BMP280;60646;55.802;37.032;2022-07-29T00:10:50;99818.00;;;21.34
67515;BMP280;60646;55.802;37.032;2022-07-29T00:13:15;99812.03;;;21.28
67515;BMP280;60646;55.802;37.032;2022-07-29T00:15:41;99825.78;;;21.30
67515;BMP280;60646;55.802;37.032;2022-07-29T00:18:07;99817.13;;;21.24
67515;BMP280;60646;55.802;37.032;2022-07-29T00:20:34;99821.16;;;21.23
67515;BMP280;60646;55.802;37.032;2022-07-29T00:22:59;99823.69;;;21.21
67515;BMP280;60646;55.802;37.032;2022-07-29T00:25:25;99824.06;;;21.17
67515;BMP280;60646;55.802;37.032;2022-07-29T00:27:51;99826.66;;;21.15
67515;BMP280;60646;55.802;37.032;2022-07-29T00:30:17;99821.41;;;21.09
67515;BMP280;60646;55.802;37.032;2022-07-29T00:32:42;99832.63;;;21.13
67515;BMP280;60646;55.802;37.032;2022-07-29T00:35:08;99836.06;;;21.14
67515;BMP280;60646;55.802;37.032;2022-07-29T00:37:52;99822.34;;;21.04
67515;BMP280;60646;55.802;37.032;2022-07-29T00:40:18;99821.84;;;20.98
67515;BMP280;60646;55.802;37.032;2022-07-29T00:42:45;99835.59;;;21.00
67515;BMP280;60646;55.802;37.032;2022-07-29T00:45:12;99827.50;;;20.93
67515;BMP280;60646;55.802;37.032;2022-07-29T00:47:37;99836.88;;;20.99
67515;BMP280;60646;55.802;37.032;2022-07-29T00:50:04;99829.34;;;20.90
67515;BMP280;60646;55.802;37.032;2022-07-29T00:52:32;99836.91;;;20.92
67515;BMP280;60646;55.802;37.032;2022-07-29T00:54:58;99847.06;;;20.91
67515;BMP280;60646;55.802;37.032;2022-07-29T00:57:24;99845.09;;;20.84
67515;BMP280;60646;55.802;37.032;2022-07-29T00:59:50;99842.06;;;20.80
67515;BMP280;60646;55.802;37.032;2022-07-29T01:02:15;99839.53;;;20.82
67515;BMP280;60646;55.802;37.032;2022-07-29T01:04:41;99837.00;;;20.77
67515;BMP280;60646;55.802;37.032;2022-07-29T01:07:07;99841.53;;;20.82
67515;BMP280;60646;55.802;37.032;2022-07-29T01:09:34;99835.56;;;20.76
67515;BMP280;60646;55.802;37.032;2022-07-29T01:12:01;99828.00;;;20.67
67515;BMP280;60646;55.802;37.032;2022-07-29T01:14:28;99834.50;;;20.71
67515;BMP280;60646;55.802;37.032;2022-07-29T01:16:59;99838.84;;;20.74
67515;BMP280;60646;55.802;37.032;2022-07-29T01:21:57;99831.09;;;20.63
67515;BMP280;60646;55.802;37.032;2022-07-29T01:30:11;99839.69;;;20.52
67515;BMP280;60646;55.802;37.032;2022-07-29T01:32:39;99850.88;;;20.56
67515;BMP280;60646;55.802;37.032;2022-07-29T01:35:22;99835.00;;;20.45
67515;BMP280;60646;55.802;37.032;2022-07-29T01:37:55;99836.97;;;20.45
67515;BMP280;60646;55.802;37.032;2022-07-29T01:40:30;99833.53;;;20.44
67515;BMP280;60646;55.802;37.032;2022-07-29T01:43:02;99843.31;;;20.40
67515;BMP280;60646;55.802;37.032;2022-07-29T01:45:40;99852.72;;;20.46
67515;BMP280;60646;55.802;37.032;2022-07-29T01:51:07;99846.25;;;20.34
67515;BMP280;60646;55.802;37.032;2022-07-29T01:53:38;99851.13;;;20.35
67515;BMP280;60646;55.802;37.032;2022-07-29T01:56:08;99849.88;;;20.29
67515;BMP280;60646;55.802;37.032;2022-07-29T01:58:38;99854.94;;;20.32
67515;BMP280;60646;55.802;37.032;2022-07-29T02:01:05;99838.66;;;20.25
67515;BMP280;60646;55.802;37.032;2022-07-29T02:03:32;99849.53;;;20.25
67515;BMP280;60646;55.802;37.032;2022-07-29T02:05:59;99841.22;;;20.23
67515;BMP280;60646;55.802;37.032;2022-07-29T02:08:26;99842.31;;;20.20
67515;BMP280;60646;55.802;37.032;2022-07-29T02:10:55;99863.44;;;20.29
67515;BMP280;60646;55.802;37.032;2022-07-29T02:13:23;99861.81;;;20.26
67515;BMP280;60646;55.802;37.032;2022-07-29T02:15:50;99864.38;;;20.24
67515;BMP280;60646;55.802;37.032;2022-07-29T02:18:17;99843.22;;;20.15
67515;BMP280;60646;55.802;37.032;2022-07-29T02:20:48;99848.81;;;20.17
67515;BMP280;60646;55.802;37.032;2022-07-29T02:23:35;99842.69;;;20.16
67515;BMP280;60646;55.802;37.032;2022-07-29T02:26:03;99840.31;;;20.13
67515;BMP280;60646;55.802;37.032;2022-07-29T02:28:29;99839.44;;;20.10
67515;BMP280;60646;55.802;37.032;2022-07-29T02:30:58;99844.47;;;20.14
67515;BMP280;60646;55.802;37.032;2022-07-29T02:33:25;99852.28;;;20.10
67515;BMP280;60646;55.802;37.032;2022-07-29T02:35:52;99837.63;;;20.05
67515;BMP280;60646;55.802;37.032;2022-07-29T02:38:18;99857.31;;;20.13
67515;BMP280;60646;55.802;37.032;2022-07-29T02:41:17;99844.53;;;20.06
67515;BMP280;60646;55.802;37.032;2022-07-29T02:43:45;99846.31;;;20.04
67515;BMP280;60646;55.802;37.032;2022-07-29T02:46:15;99844.69;;;20.01
67515;BMP280;60646;55.802;37.032;2022-07-29T02:48:49;99863.47;;;20.14
67515;BMP280;60646;55.802;37.032;2022-07-29T02:51:59;99844.16;;;20.02
67515;BMP280;60646;55.802;37.032;2022-07-29T02:54:42;99860.97;;;20.16
67515;BMP280;60646;55.802;37.032;2022-07-29T02:57:22;99853.38;;;20.07
67515;BMP280;60646;55.802;37.032;2022-07-29T02:59:53;99847.41;;;20.01
67515;BMP280;60646;55.802;37.032;2022-07-29T03:02:23;99850.47;;;20.05
67515;BMP280;60646;55.802;37.032;2022-07-29T03:04:51;99845.94;;;20.00
67515;BMP280;60646;55.802;37.032;2022-07-29T03:07:18;99850.66;;;20.07
67515;BMP280;60646;55.802;37.032;2022-07-29T03:09:45;99853.53;;;20.09
67515;BMP280;60646;55.802;37.032;2022-07-29T03:12:12;99851.72;;;20.04
67515;BMP280;60646;55.802;37.032;2022-07-29T03:14:38;99843.06;;;20.05
67515;BMP280;60646;55.802;37.032;2022-07-29T03:17:05;99845.41;;;20.09
67515;BMP280;60646;55.802;37.032;2022-07-29T03:19:31;99855.69;;;20.18
67515;BMP280;60646;55.802;37.032;2022-07-29T03:21:58;99859.84;;;20.19
67515;BMP280;60646;55.802;37.032;2022-07-29T03:24:50;99862.88;;;20.30
67515;BMP280;60646;55.802;37.032;2022-07-29T03:27:16;99856.41;;;20.18
67515;BMP280;60646;55.802;37.032;2022-07-29T03:29:50;99864.72;;;20.28
67515;BMP280;60646;55.802;37.032;2022-07-29T03:32:16;99848.09;;;20.24
67515;BMP280;60646;55.802;37.032;2022-07-29T03:34:41;99850.81;;;20.24
67515;BMP280;60646;55.802;37.032;2022-07-29T03:37:07;99852.75;;;20.31
67515;BMP280;60646;55.802;37.032;2022-07-29T03:39:38;99854.75;;;20.30
67515;BMP280;60646;55.802;37.032;2022-07-29T03:42:06;99843.69;;;20.36
67515;BMP280;60646;55.802;37.032;2022-07-29T03:44:34;99846.06;;;20.32
67515;BMP280;60646;55.802;37.032;2022-07-29T03:47:01;99847.31;;;20.39
67515;BMP280;60646;55.802;37.032;2022-07-29T03:49:27;99846.94;;;20.42
67515;BMP280;60646;55.802;37.032;2022-07-29T03:51:54;99856.53;;;20.43
67515;BMP280;60646;55.802;37.032;2022-07-29T03:54:20;99858.13;;;20.46
67515;BMP280;60646;55.802;37.032;2022-07-29T03:56:48;99863.00;;;20.55
67515;BMP280;60646;55.802;37.032;2022-07-29T03:59:15;99863.91;;;20.50
67515;BMP280;60646;55.802;37.032;2022-07-29T04:01:43;99857.38;;;20.53
67515;BMP280;60646;55.802;37.032;2022-07-29T04:04:09;99872.53;;;20.64
67515;BMP280;60646;55.802;37.032;2022-07-29T04:06:42;99876.53;;;20.70
67515;BMP280;60646;55.802;37.032;2022-07-29T04:09:09;99861.69;;;20.64
67515;BMP280;60646;55.802;37.032;2022-07-29T04:11:38;99858.78;;;20.69
67515;BMP280;60646;55.802;37.032;2022-07-29T04:14:04;99858.41;;;20.73
67515;BMP280;60646;55.802;37.032;2022-07-29T04:16:29;99863.44;;;20.76
67515;BMP280;60646;55.802;37.032;2022-07-29T04:18:55;99855.81;;;20.82
67515;BMP280;60646;55.802;37.032;2022-07-29T04:21:21;99863.03;;;20.87
67515;BMP280;60646;55.802;37.032;2022-07-29T04:23:46;99858.66;;;20.92
67515;BMP280;60646;55.802;37.032;2022-07-29T04:26:16;99866.59;;;20.97
67515;BMP280;60646;55.802;37.032;2022-07-29T04:28:42;99872.72;;;21.05
67515;BMP280;60646;55.802;37.032;2022-07-29T04:31:09;99879.69;;;21.16
67515;BMP280;60646;55.802;37.032;2022-07-29T04:33:34;99877.69;;;21.17
67515;BMP280;60646;55.802;37.032;2022-07-29T04:36:00;99870.06;;;21.23
67515;BMP280;60646;55.802;37.032;2022-07-29T04:38:26;99884.47;;;21.33
67515;BMP280;60646;55.802;37.032;2022-07-29T04:40:51;99873.44;;;21.31
67515;BMP280;60646;55.802;37.032;2022-07-29T04:43:17;99876.50;;;21.35
67515;BMP280;60646;55.802;37.032;2022-07-29T04:45:43;99874.28;;;21.41
67515;BMP280;60646;55.802;37.032;2022-07-29T04:48:09;99882.94;;;21.47
67515;BMP280;60646;55.802;37.032;2022-07-29T04:50:37;99866.78;;;21.49
67515;BMP280;60646;55.802;37.032;2022-07-29T04:53:03;99871.59;;;21.58
67515;BMP280;60646;55.802;37.032;2022-07-29T04:55:29;99880.91;;;21.72
67515;BMP280;60646;55.802;37.032;2022-07-29T04:57:55;99881.56;;;21.80
67515;BMP280;60646;55.802;37.032;2022-07-29T05:00:20;99875.78;;;21.76
67515;BMP280;60646;55.802;37.032;2022-07-29T05:02:57;99882.88;;;21.96
67515;BMP280;60646;55.802;37.032;2022-07-29T05:05:23;99875.56;;;21.99
67515;BMP280;60646;55.802;37.032;2022-07-29T05:07:49;99870.13;;;21.99
67515;BMP280;60646;55.802;37.032;2022-07-29T05:10:14;99856.53;;;21.99
67515;BMP280;60646;55.802;37.032;2022-07-29T05:12:40;99866.38;;;22.11
67515;BMP280;60646;55.802;37.032;2022-07-29T05:15:06;99859.13;;;22.14
67515;BMP280;60646;55.802;37.032;2022-07-29T05:17:32;99864.63;;;22.23
67515;BMP280;60646;55.802;37.032;2022-07-29T05:19:58;99857.63;;;22.30
67515;BMP280;60646;55.802;37.032;2022-07-29T05:22:24;99865.56;;;22.35
67515;BMP280;60646;55.802;37.032;2022-07-29T05:24:49;99866.66;;;22.49
67515;BMP280;60646;55.802;37.032;2022-07-29T05:27:15;99867.69;;;22.54
67515;BMP280;60646;55.802;37.032;2022-07-29T05:29:41;99868.88;;;22.60
67515;BMP280;60646;55.802;37.032;2022-07-29T05:32:07;99858.16;;;22.62
67515;BMP280;60646;55.802;37.032;2022-07-29T05:34:32;99870.34;;;22.71
67515;BMP280;60646;55.802;37.032;2022-07-29T05:36:58;99865.94;;;22.75
67515;BMP280;60646;55.802;37.032;2022-07-29T05:39:24;99861.09;;;22.84
67515;BMP280;60646;55.802;37.032;2022-07-29T05:41:50;99862.88;;;22.89
67515;BMP280;60646;55.802;37.032;2022-07-29T05:44:16;99872.09;;;23.03
67515;BMP280;60646;55.802;37.032;2022-07-29T05:46:42;99868.25;;;23.06
67515;BMP280;60646;55.802;37.032;2022-07-29T05:49:08;99860.38;;;23.10
67515;BMP280;60646;55.802;37.032;2022-07-29T05:51:34;99864.97;;;23.17
67515;BMP280;60646;55.802;37.032;2022-07-29T05:54:00;99850.69;;;23.26
67515;BMP280;60646;55.802;37.032;2022-07-29T05:56:26;99851.53;;;23.28
67515;BMP280;60646;55.802;37.032;2022-07-29T05:58:52;99852.69;;;23.35
67515;BMP280;60646;55.802;37.032;2022-07-29T06:01:18;99851.84;;;23.42
67515;BMP280;60646;55.802;37.032;2022-07-29T06:03:43;99842.69;;;23.47
67515;BMP280;60646;55.802;37.032;2022-07-29T06:06:10;99865.38;;;23.59
67515;BMP280;60646;55.802;37.032;2022-07-29T06:08:35;99854.63;;;23.61
67515;BMP280;60646;55.802;37.032;2022-07-29T06:11:02;99848.56;;;23.63
67515;BMP280;60646;55.802;37.032;2022-07-29T06:13:28;99870.84;;;23.78
67515;BMP280;60646;55.802;37.032;2022-07-29T06:15:54;99851.47;;;23.74
67515;BMP280;60646;55.802;37.032;2022-07-29T06:18:20;99870.44;;;23.91
67515;BMP280;60646;55.802;37.032;2022-07-29T06:20:52;99857.81;;;23.96
67515;BMP280;60646;55.802;37.032;2022-07-29T06:23:18;99854.34;;;23.95
67515;BMP280;60646;55.802;37.032;2022-07-29T06:25:44;99861.94;;;24.06
67515;BMP280;60646;55.802;37.032;2022-07-29T06:28:10;99851.03;;;24.06
67515;BMP280;60646;55.802;37.032;2022-07-29T06:30:36;99856.03;;;24.19
67515;BMP280;60646;55.802;37.032;2022-07-29T06:33:02;99856.50;;;24.25
67515;BMP280;60646;55.802;37.032;2022-07-29T06:35:28;99859.91;;;24.35
67515;BMP280;60646;55.802;37.032;2022-07-29T06:37:54;99860.31;;;24.41
67515;BMP280;60646;55.802;37.032;2022-07-29T06:40:19;99840.91;;;24.37
67515;BMP280;60646;55.802;37.032;2022-07-29T06:43:04;99860.72;;;24.47
67515;BMP280;60646;55.802;37.032;2022-07-29T06:45:29;99854.13;;;24.51
67515;BMP280;60646;55.802;37.032;2022-07-29T06:47:55;99857.72;;;24.53
67515;BMP280;60646;55.802;37.032;2022-07-29T06:50:21;99845.63;;;24.56
67515;BMP280;60646;55.802;37.032;2022-07-29T06:52:47;99844.47;;;24.59
67515;BMP280;60646;55.802;37.032;2022-07-29T06:55:13;99838.88;;;24.57
67515;BMP280;60646;55.802;37.032;2022-07-29T06:57:39;99847.44;;;24.73
67515;BMP280;60646;55.802;37.032;2022-07-29T07:00:08;99848.56;;;24.79
67515;BMP280;60646;55.802;37.032;2022-07-29T07:02:35;99849.69;;;24.86
67515;BMP280;60646;55.802;37.032;2022-07-29T07:05:01;99840.06;;;24.85
67515;BMP280;60646;55.802;37.032;2022-07-29T07:07:28;99827.69;;;24.84
67515;BMP280;60646;55.802;37.032;2022-07-29T07:09:53;99849.69;;;24.95
67515;BMP280;60646;55.802;37.032;2022-07-29T07:12:19;99838.56;;;24.93
67515;BMP280;60646;55.802;37.032;2022-07-29T07:14:45;99838.38;;;25.01
67515;BMP280;60646;55.802;37.032;2022-07-29T07:17:11;99847.00;;;25.07
67515;BMP280;60646;55.802;37.032;2022-07-29T07:19:37;99831.88;;;25.06
67515;BMP280;60646;55.802;37.032;2022-07-29T07:22:02;99849.13;;;25.18
67515;BMP280;60646;55.802;37.032;2022-07-29T07:24:28;99848.03;;;25.23
67515;BMP280;60646;55.802;37.032;2022-07-29T07:26:54;99865.13;;;25.33
67515;BMP280;60646;55.802;37.032;2022-07-29T07:29:20;99860.31;;;25.43
67515;BMP280;60646;55.802;37.032;2022-07-29T07:31:45;99856.16;;;25.42
67515;BMP280;60646;55.802;37.032;2022-07-29T07:34:11;99850.59;;;25.52
67515;BMP280;60646;55.802;37.032;2022-07-29T07:36:37;99855.88;;;25.59
67515;BMP280;60646;55.802;37.032;2022-07-29T07:39:03;99855.47;;;25.74
67515;BMP280;60646;55.802;37.032;2022-07-29T07:41:30;99858.94;;;25.86
67515;BMP280;60646;55.802;37.032;2022-07-29T07:43:56;99858.31;;;25.97
67515;BMP280;60646;55.802;37.032;2022-07-29T07:46:22;99852.34;;;26.01
67515;BMP280;60646;55.802;37.032;2022-07-29T07:48:47;99848.97;;;26.12
67515;BMP280;60646;55.802;37.032;2022-07-29T07:51:13;99855.63;;;26.20
67515;BMP280;60646;55.802;37.032;2022-07-29T07:53:39;99863.28;;;26.33
67515;BMP280;60646;55.802;37.032;2022-07-29T07:56:05;99855.16;;;26.35
67515;BMP280;60646;55.802;37.032;2022-07-29T07:58:32;99869.38;;;26.44
67515;BMP280;60646;55.802;37.032;2022-07-29T08:00:57;99866.72;;;26.46
67515;BMP280;60646;55.802;37.032;2022-07-29T08:03:23;99867.09;;;26.52
67515;BMP280;60646;55.802;37.032;2022-07-29T08:05:49;99875.94;;;26.62
67515;BMP280;60646;55.802;37.032;2022-07-29T08:08:17;99871.38;;;26.55
67515;BMP280;60646;55.802;37.032;2022-07-29T08:10:43;99868.66;;;26.55
67515;BMP280;60646;55.802;37.032;2022-07-29T08:13:19;99855.41;;;26.51
67515;BMP280;60646;55.802;37.032;2022-07-29T08:15:45;99864.59;;;26.56
67515;BMP280;60646;55.802;37.032;2022-07-29T08:18:12;99879.66;;;26.66
67515;BMP280;60646;55.802;37.032;2022-07-29T08:20:41;99883.78;;;26.67
67515;BMP280;60646;55.802;37.032;2022-07-29T08:23:07;99869.13;;;26.63
67515;BMP280;60646;55.802;37.032;2022-07-29T08:25:37;99882.72;;;26.72
67515;BMP280;60646;55.802;37.032;2022-07-29T08:28:04;99872.59;;;26.63
67515;BMP280;60646;55.802;37.032;2022-07-29T08:30:30;99859.75;;;26.66
67515;BMP280;60646;55.802;37.032;2022-07-29T08:32:58;99869.50;;;26.69
67515;BMP280;60646;55.802;37.032;2022-07-29T08:35:24;99856.03;;;26.73
67515;BMP280;60646;55.802;37.032;2022-07-29T08:37:51;99858.78;;;26.73
67515;BMP280;60646;55.802;37.032;2022-07-29T08:40:16;99866.16;;;26.82
67515;BMP280;60646;55.802;37.032;2022-07-29T08:42:43;99849.22;;;26.74
67515;BMP280;60646;55.802;37.032;2022-07-29T08:45:09;99860.69;;;26.82
67515;BMP280;60646;55.802;37.032;2022-07-29T08:47:35;99854.94;;;26.89
67515;BMP280;60646;55.802;37.032;2022-07-29T08:50:05;99853.25;;;26.96
67515;BMP280;60646;55.802;37.032;2022-07-29T08:52:35;99851.72;;;26.93
67515;BMP280;60646;55.802;37.032;2022-07-29T08:55:02;99861.16;;;27.01
67515;BMP280;60646;55.802;37.032;2022-07-29T08:57:29;99866.38;;;27.09
67515;BMP280;60646;55.802;37.032;2022-07-29T08:59:57;99866.16;;;27.16
67515;BMP280;60646;55.802;37.032;2022-07-29T09:02:28;99851.47;;;27.12
67515;BMP280;60646;55.802;37.032;2022-07-29T09:04:56;99854.69;;;27.20
67515;BMP280;60646;55.802;37.032;2022-07-29T09:07:25;99864.34;;;27.21
67515;BMP280;60646;55.802;37.032;2022-07-29T09:09:51;99855.97;;;27.19
67515;BMP280;60646;55.802;37.032;2022-07-29T09:12:17;99857.53;;;27.22
67515;BMP280;60646;55.802;37.032;2022-07-29T09:14:43;99858.00;;;27.30
67515;BMP280;60646;55.802;37.032;2022-07-29T09:17:09;99856.56;;;27.29
67515;BMP280;60646;55.802;37.032;2022-07-29T09:19:36;99845.44;;;27.27
67515;BMP280;60646;55.802;37.032;2022-07-29T09:22:06;99855.78;;;27.40
67515;BMP280;60646;55.802;37.032;2022-07-29T09:27:24;99849.78;;;27.55
67515;BMP280;60646;55.802;37.032;2022-07-29T09:29:56;99861.22;;;27.63
67515;BMP280;60646;55.802;37.032;2022-07-29T09:32:23;99864.81;;;27.66
67515;BMP280;60646;55.802;37.032;2022-07-29T09:34:49;99864.31;;;27.69
67515;BMP280;60646;55.802;37.032;2022-07-29T09:37:34;99854.84;;;27.72
67515;BMP280;60646;55.802;37.032;2022-07-29T09:40:27;99862.06;;;27.66
67515;BMP280;60646;55.802;37.032;2022-07-29T09:42:54;99864.56;;;27.62
67515;BMP280;60646;55.802;37.032;2022-07-29T09:45:29;99864.06;;;27.65
67515;BMP280;60646;55.802;37.032;2022-07-29T09:47:55;99872.09;;;27.86
67515;BMP280;60646;55.802;37.032;2022-07-29T09:50:35;99869.00;;;27.80
67515;BMP280;60646;55.802;37.032;2022-07-29T09:53:01;99870.34;;;27.79
67515;BMP280;60646;55.802;37.032;2022-07-29T09:55:26;99859.63;;;27.72
67515;BMP280;60646;55.802;37.032;2022-07-29T09:57:52;99872.25;;;27.77
67515;BMP280;60646;55.802;37.032;2022-07-29T10:00:20;99875.63;;;27.75
67515;BMP280;60646;55.802;37.032;2022-07-29T10:02:55;99872.41;;;27.67
67515;BMP280;60646;55.802;37.032;2022-07-29T10:05:26;99868.66;;;27.61
67515;BMP280;60646;55.802;37.032;2022-07-29T10:07:56;99867.09;;;27.58
67515;BMP280;60646;55.802;37.032;2022-07-29T10:10:28;99865.38;;;27.64
67515;BMP280;60646;55.802;37.032;2022-07-29T10:15:23;99876.81;;;27.72
67515;BMP280;60646;55.802;37.032;2022-07-29T10:17:53;99880.88;;;27.71
67515;BMP280;60646;55.802;37.032;2022-07-29T10:20:20;99867.63;;;27.68
67515;BMP280;60646;55.802;37.032;2022-07-29T10:22:47;99881.44;;;27.81
67515;BMP280;60646;55.802;37.032;2022-07-29T10:25:14;99877.81;;;27.90
67515;BMP280;60646;55.802;37.032;2022-07-29T10:27:40;99871.13;;;27.93
67515;BMP280;60646;55.802;37.032;2022-07-29T10:30:06;99871.97;;;28.09
67515;BMP280;60646;55.802;37.032;2022-07-29T10:46:38;99853.50;;;28.37
67515;BMP280;60646;55.802;37.032;2022-07-29T10:51:57;99863.19;;;28.38
67515;BMP280;60646;55.802;37.032;2022-07-29T10:54:42;99864.88;;;28.31
67515;BMP280;60646;55.802;37.032;2022-07-29T10:57:19;99868.66;;;28.24
67515;BMP280;60646;55.802;37.032;2022-07-29T10:59:47;99861.91;;;28.14
67515;BMP280;60646;55.802;37.032;2022-07-29T11:05:15;99866.81;;;28.15
67515;BMP280;60646;55.802;37.032;2022-07-29T11:10:44;99855.06;;;28.01
67515;BMP280;60646;55.802;37.032;2022-07-29T11:13:10;99855.06;;;28.01
67515;BMP280;60646;55.802;37.032;2022-07-29T11:15:53;99858.56;;;28.15
67515;BMP280;60646;55.802;37.032;2022-07-29T11:18:26;99849.06;;;28.05
67515;BMP280;60646;55.802;37.032;2022-07-29T11:20:51;99847.44;;;28.00
67515;BMP280;60646;55.802;37.032;2022-07-29T11:23:27;99866.50;;;28.09
67515;BMP280;60646;55.802;37.032;2022-07-29T11:29:08;99843.47;;;28.16
67515;BMP280;60646;55.802;37.032;2022-07-29T11:31:48;99852.19;;;28.24
67515;BMP280;60646;55.802;37.032;2022-07-29T11:39:39;99849.50;;;28.40
67515;BMP280;60646;55.802;37.032;2022-07-29T11:50:32;99850.47;;;28.72
67515;BMP280;60646;55.802;37.032;2022-07-29T11:52:59;99846.06;;;28.80
67515;BMP280;60646;55.802;37.032;2022-07-29T11:55:25;99844.53;;;28.91
67515;BMP280;60646;55.802;37.032;2022-07-29T11:57:53;99862.56;;;29.07
67515;BMP280;60646;55.802;37.032;2022-07-29T12:00:30;99846.09;;;29.23
67515;BMP280;60646;55.802;37.032;2022-07-29T12:02:57;99836.22;;;29.18
67515;BMP280;60646;55.802;37.032;2022-07-29T12:05:31;99852.56;;;29.43
67515;BMP280;60646;55.802;37.032;2022-07-29T12:08:07;99850.81;;;29.50
67515;BMP280;60646;55.802;37.032;2022-07-29T12:10:33;99834.91;;;29.48
67515;BMP280;60646;55.802;37.032;2022-07-29T12:12:59;99835.78;;;29.53
67515;BMP280;60646;55.802;37.032;2022-07-29T12:15:24;99845.88;;;29.62
67515;BMP280;60646;55.802;37.032;2022-07-29T12:17:51;99835.56;;;29.62
67515;BMP280;60646;55.802;37.032;2022-07-29T12:20:29;99838.41;;;29.64
67515;BMP280;60646;55.802;37.032;2022-07-29T12:22:55;99846.59;;;29.62
67515;BMP280;60646;55.802;37.032;2022-07-29T12:25:23;99840.16;;;29.58
67515;BMP280;60646;55.802;37.032;2022-07-29T12:28:06;99845.06;;;29.59
67515;BMP280;60646;55.802;37.032;2022-07-29T12:30:39;99839.78;;;29.50
67515;BMP280;60646;55.802;37.032;2022-07-29T12:33:22;99845.31;;;29.50
67515;BMP280;60646;55.802;37.032;2022-07-29T12:35:57;99826.16;;;29.38
67515;BMP280;60646;55.802;37.032;2022-07-29T12:38:23;99831.91;;;29.28
67515;BMP280;60646;55.802;37.032;2022-07-29T12:40:49;99811.84;;;29.26
67515;BMP280;60646;55.802;37.032;2022-07-29T12:43:21;99834.41;;;29.38
67515;BMP280;60646;55.802;37.032;2022-07-29T12:45:55;99837.81;;;29.36
67515;BMP280;60646;55.802;37.032;2022-07-29T12:48:34;99834.66;;;29.42
67515;BMP280;60646;55.802;37.032;2022-07-29T12:51:01;99834.78;;;29.30
67515;BMP280;60646;55.802;37.032;2022-07-29T12:53:28;99831.41;;;29.32
67515;BMP280;60646;55.802;37.032;2022-07-29T12:55:56;99827.63;;;29.25
67515;BMP280;60646;55.802;37.032;2022-07-29T13:01:12;99824.44;;;29.31
67515;BMP280;60646;55.802;37.032;2022-07-29T13:03:58;99830.16;;;29.35
67515;BMP280;60646;55.802;37.032;2022-07-29T13:07:05;99838.41;;;29.35
67515;BMP280;60646;55.802;37.032;2022-07-29T13:09:50;99822.09;;;29.10
67515;BMP280;60646;55.802;37.032;2022-07-29T13:12:16;99824.53;;;29.04
67515;BMP280;60646;55.802;37.032;2022-07-29T13:14:47;99830.22;;;29.08
67515;BMP280;60646;55.802;37.032;2022-07-29T13:17:18;99835.34;;;29.00
67515;BMP280;60646;55.802;37.032;2022-07-29T13:19:47;99821.13;;;28.90
67515;BMP280;60646;55.802;37.032;2022-07-29T13:22:16;99825.16;;;28.89
67515;BMP280;60646;55.802;37.032;2022-07-29T13:27:19;99819.06;;;28.77
67515;BMP280;60646;55.802;37.032;2022-07-29T13:29:45;99818.97;;;28.75
67515;BMP280;60646;55.802;37.032;2022-07-29T13:32:12;99831.53;;;28.78
67515;BMP280;60646;55.802;37.032;2022-07-29T13:34:38;99830.28;;;28.67
67515;BMP280;60646;55.802;37.032;2022-07-29T13:37:05;99836.41;;;28.66
67515;BMP280;60646;55.802;37.032;2022-07-29T13:39:30;99833.16;;;28.56
67515;BMP280;60646;55.802;37.032;2022-07-29T13:41:56;99840.78;;;28.57
67515;BMP280;60646;55.802;37.032;2022-07-29T13:44:22;99834.34;;;28.53
67515;BMP280;60646;55.802;37.032;2022-07-29T13:46:48;99841.28;;;28.54
67515;BMP280;60646;55.802;37.032;2022-07-29T13:49:14;99832.03;;;28.47
67515;BMP280;60646;55.802;37.032;2022-07-29T13:51:39;99824.59;;;28.50
67515;BMP280;60646;55.802;37.032;2022-07-29T13:54:05;99827.66;;;28.56
67515;BMP280;60646;55.802;37.032;2022-07-29T13:56:31;99827.03;;;28.57
67515;BMP280;60646;55.802;37.032;2022-07-29T13:58:57;99830.91;;;28.66
67515;BMP280;60646;55.802;37.032;2022-07-29T14:01:23;99829.50;;;28.78
67515;BMP280;60646;55.802;37.032;2022-07-29T14:03:49;99832.31;;;28.80
67515;BMP280;60646;55.802;37.032;2022-07-29T14:06:14;99822.13;;;28.83
67515;BMP280;60646;55.802;37.032;2022-07-29T14:08:41;99813.44;;;28.88
67515;BMP280;60646;55.802;37.032;2022-07-29T14:11:10;99820.56;;;28.93
67515;BMP280;60646;55.802;37.032;2022-07-29T14:13:36;99834.75;;;29.01
67515;BMP280;60646;55.802;37.032;2022-07-29T14:16:01;99825.97;;;29.05
67515;BMP280;60646;55.802;37.032;2022-07-29T14:18:27;99831.56;;;29.07
67515;BMP280;60646;55.802;37.032;2022-07-29T14:20:53;99827.81;;;29.00
67515;BMP280;60646;55.802;37.032;2022-07-29T14:23:18;99815.78;;;28.94
67515;BMP280;60646;55.802;37.032;2022-07-29T14:25:44;99824.84;;;28.96
67515;BMP280;60646;55.802;37.032;2022-07-29T14:28:10;99821.81;;;28.90
67515;BMP280;60646;55.802;37.032;2022-07-29T14:30:35;99824.56;;;28.90
67515;BMP280;60646;55.802;37.032;2022-07-29T14:33:03;99826.72;;;28.92
67515;BMP280;60646;55.802;37.032;2022-07-29T14:35:33;99818.75;;;28.84
67515;BMP280;60646;55.802;37.032;2022-07-29T14:37:58;99818.66;;;28.82
67515;BMP280;60646;55.802;37.032;2022-07-29T14:40:24;99820.59;;;28.80
67515;BMP280;60646;55.802;37.032;2022-07-29T14:42:51;99834.75;;;28.88
67515;BMP280;60646;55.802;37.032;2022-07-29T14:45:16;99830.09;;;28.77
67515;BMP280;60646;55.802;37.032;2022-07-29T14:47:42;99829.88;;;28.73
67515;BMP280;60646;55.802;37.032;2022-07-29T14:50:09;99865.84;;;28.77
67515;BMP280;60646;55.802;37.032;2022-07-29T14:52:35;99878.69;;;28.72
67515;BMP280;60646;55.802;37.032;2022-07-29T14:55:01;99878.78;;;28.61
67515;BMP280;60646;55.802;37.032;2022-07-29T14:57:27;99864.13;;;28.43
67515;BMP280;60646;55.802;37.032;2022-07-29T14:59:52;99877.22;;;28.30
67515;BMP280;60646;55.802;37.032;2022-07-29T15:02:18;99875.97;;;28.20
67515;BMP280;60646;55.802;37.032;2022-07-29T15:04:44;99876.53;;;28.05